sensor_id;sensor_type;location;lat;lon;timestamp;pressure;altitude;pressure_sealevel;temperature
20092;BMP180;10205;49.678;6.560;2024-01-27T00:00:26;101822.00;;;8.50
20092;BMP180;10205;49.678;6.560;2024-01-27T00:02:53;101822.00;;;8.50
20092;BMP180;10205;49.678;6.560;2024-01-27T00:05:22;101823.00;;;8.50
20092;BMP180;10205;49.678;6.560;2024-01-27T00:07:49;101829.00;;;8.50
20092;BMP180;10205;49.678;6.560;2024-01-27T00:10:16;101826.00;;;8.40
20092;BMP180;10205;49.678;6.560;2024-01-27T00:12:44;101822.00;;;8.40
20092;BMP180;10205;49.678;6.560;2024-01-27T00:15:11;101823.00;;;8.40
20092;BMP180;10205;49.678;6.560;2024-01-27T00:17:38;101817.00;;;8.30
20092;BMP180;10205;49.678;6.560;2024-01-27T00:20:07;101823.00;;;8.30
20092;BMP180;10205;49.678;6.560;2024-01-27T00:22:35;101831.00;;;8.30
20092;BMP180;10205;49.678;6.560;2024-01-27T00:25:04;101821.00;;;8.30
20092;BMP180;10205;49.678;6.560;2024-01-27T00:27:31;101826.00;;;8.20
20092;BMP180;10205;49.678;6.560;2024-01-27T00:29:58;101820.00;;;8.20
20092;BMP180;10205;49.678;6.560;2024-01-27T00:32:25;101817.00;;;8.20
20092;BMP180;10205;49.678;6.560;2024-01-27T00:34:52;101827.00;;;8.20
20092;BMP180;10205;49.678;6.560;2024-01-27T00:37:19;101820.00;;;8.20
20092;BMP180;10205;49.678;6.560;2024-01-27T00:39:48;101827.00;;;8.10
20092;BMP180;10205;49.678;6.560;2024-01-27T00:42:15;101826.00;;;8.10
20092;BMP180;10205;49.678;6.560;2024-01-27T00:44:44;101836.00;;;8.10
20092;BMP180;10205;49.678;6.560;2024-01-27T00:47:11;101833.00;;;8.10
20092;BMP180;10205;49.678;6.560;2024-01-27T00:49:38;101835.00;;;8.00
20092;BMP180;10205;49.678;6.560;2024-01-27T00:52:05;101838.00;;;8.00
20092;BMP180;10205;49.678;6.560;2024-01-27T00:54:32;101834.00;;;7.90
20092;BMP180;10205;49.678;6.560;2024-01-27T00:57:01;101835.00;;;7.90
20092;BMP180;10205;49.678;6.560;2024-01-27T00:59:28;101840.00;;;7.90
20092;BMP180;10205;49.678;6.560;2024-01-27T01:01:55;101846.00;;;7.80
20092;BMP180;10205;49.678;6.560;2024-01-27T01:04:22;101846.00;;;7.90
20092;BMP180;10205;49.678;6.560;2024-01-27T01:06:49;101863.00;;;7.90
20092;BMP180;10205;49.678;6.560;2024-01-27T01:09:15;101859.00;;;7.80
20092;BMP180;10205;49.678;6.560;2024-01-27T01:11:42;101853.00;;;7.80
20092;BMP180;10205;49.678;6.560;2024-01-27T01:14:11;101864.00;;;7.80
20092;BMP180;10205;49.678;6.560;2024-01-27T01:16:38;101860.00;;;7.70
20092;BMP180;10205;49.678;6.560;2024-01-27T01:19:05;101864.00;;;7.70
20092;BMP180;10205;49.678;6.560;2024-01-27T01:21:33;101879.00;;;7.70
20092;BMP180;10205;49.678;6.560;2024-01-27T01:24:00;101882.00;;;7.70
20092;BMP180;10205;49.678;6.560;2024-01-27T01:26:27;101888.00;;;7.60
20092;BMP180;10205;49.678;6.560;2024-01-27T01:28:54;101885.00;;;7.60
20092;BMP180;10205;49.678;6.560;2024-01-27T01:31:23;101880.00;;;7.60
20092;BMP180;10205;49.678;6.560;2024-01-27T01:33:51;101881.00;;;7.60
20092;BMP180;10205;49.678;6.560;2024-01-27T01:36:18;101870.00;;;7.60
20092;BMP180;10205;49.678;6.560;2024-01-27T01:38:45;101897.00;;;7.50
20092;BMP180;10205;49.678;6.560;2024-01-27T01:41:12;101901.00;;;7.50
20092;BMP180;10205;49.678;6.560;2024-01-27T01:43:39;101894.00;;;7.50
20092;BMP180;10205;49.678;6.560;2024-01-27T01:46:07;101904.00;;;7.50
20092;BMP180;10205;49.678;6.560;2024-01-27T01:48:35;101907.00;;;7.40
20092;BMP180;10205;49.678;6.560;2024-01-27T01:51:03;101901.00;;;7.40
20092;BMP180;10205;49.678;6.560;2024-01-27T01:53:31;101899.00;;;7.40
20092;BMP180;10205;49.678;6.560;2024-01-27T01:55:58;101913.00;;;7.40
20092;BMP180;10205;49.678;6.560;2024-01-27T01:58:25;101914.00;;;7.30
20092;BMP180;10205;49.678;6.560;2024-01-27T02:00:59;101908.00;;;7.30
20092;BMP180;10205;49.678;6.560;2024-01-27T02:03:27;101891.00;;;7.30
20092;BMP180;10205;49.678;6.560;2024-01-27T02:05:55;101900.00;;;7.30
20092;BMP180;10205;49.678;6.560;2024-01-27T02:08:23;101900.00;;;7.30
20092;BMP180;10205;49.678;6.560;2024-01-27T02:10:51;101903.00;;;7.20
20092;BMP180;10205;49.678;6.560;2024-01-27T02:13:19;101897.00;;;7.20
20092;BMP180;10205;49.678;6.560;2024-01-27T02:15:49;101886.00;;;7.20
20092;BMP180;10205;49.678;6.560;2024-01-27T02:18:16;101862.00;;;7.20
20092;BMP180;10205;49.678;6.560;2024-01-27T02:20:44;101881.00;;;7.20
20092;BMP180;10205;49.678;6.560;2024-01-27T02:23:12;101876.00;;;7.10
20092;BMP180;10205;49.678;6.560;2024-01-27T02:25:41;101870.00;;;7.10
20092;BMP180;10205;49.678;6.560;2024-01-27T02:28:08;101879.00;;;7.10
20092;BMP180;10205;49.678;6.560;2024-01-27T02:30:35;101877.00;;;7.10
20092;BMP180;10205;49.678;6.560;2024-01-27T02:33:03;101888.00;;;7.10
20092;BMP180;10205;49.678;6.560;2024-01-27T02:35:30;101880.00;;;7.00
20092;BMP180;10205;49.678;6.560;2024-01-27T02:37:57;101865.00;;;7.00
20092;BMP180;10205;49.678;6.560;2024-01-27T02:40:24;101861.00;;;7.00
20092;BMP180;10205;49.678;6.560;2024-01-27T02:42:53;101896.00;;;7.00
20092;BMP180;10205;49.678;6.560;2024-01-27T02:45:20;101880.00;;;6.90
20092;BMP180;10205;49.678;6.560;2024-01-27T02:47:48;101882.00;;;6.90
20092;BMP180;10205;49.678;6.560;2024-01-27T02:50:15;101884.00;;;6.90
20092;BMP180;10205;49.678;6.560;2024-01-27T02:52:42;101890.00;;;6.90
20092;BMP180;10205;49.678;6.560;2024-01-27T02:55:09;101891.00;;;6.90
20092;BMP180;10205;49.678;6.560;2024-01-27T02:57:36;101884.00;;;6.90
20092;BMP180;10205;49.678;6.560;2024-01-27T03:00:06;101884.00;;;6.80
20092;BMP180;10205;49.678;6.560;2024-01-27T03:02:34;101885.00;;;6.80
20092;BMP180;10205;49.678;6.560;2024-01-27T03:05:01;101881.00;;;6.80
20092;BMP180;10205;49.678;6.560;2024-01-27T03:07:28;101895.00;;;6.80
20092;BMP180;10205;49.678;6.560;2024-01-27T03:09:55;101903.00;;;6.80
20092;BMP180;10205;49.678;6.560;2024-01-27T03:12:22;101908.00;;;6.70
20092;BMP180;10205;49.678;6.560;2024-01-27T03:14:49;101926.00;;;6.70
20092;BMP180;10205;49.678;6.560;2024-01-27T03:17:19;101909.00;;;6.70
20092;BMP180;10205;49.678;6.560;2024-01-27T03:19:46;101917.00;;;6.70
20092;BMP180;10205;49.678;6.560;2024-01-27T03:22:13;101903.00;;;6.70
20092;BMP180;10205;49.678;6.560;2024-01-27T03:24:40;101909.00;;;6.60
20092;BMP180;10205;49.678;6.560;2024-01-27T03:27:09;101913.00;;;6.60
20092;BMP180;10205;49.678;6.560;2024-01-27T03:29:36;101910.00;;;6.60
20092;BMP180;10205;49.678;6.560;2024-01-27T03:32:04;101906.00;;;6.60
20092;BMP180;10205;49.678;6.560;2024-01-27T03:34:32;101903.00;;;6.60
20092;BMP180;10205;49.678;6.560;2024-01-27T03:36:59;101910.00;;;6.50
20092;BMP180;10205;49.678;6.560;2024-01-27T03:39:27;101896.00;;;6.50
20092;BMP180;10205;49.678;6.560;2024-01-27T03:41:54;101903.00;;;6.50
20092;BMP180;10205;49.678;6.560;2024-01-27T03:44:21;101906.00;;;6.50
20092;BMP180;10205;49.678;6.560;2024-01-27T03:46:48;101911.00;;;6.50
20092;BMP180;10205;49.678;6.560;2024-01-27T03:49:17;101922.00;;;6.50
20092;BMP180;10205;49.678;6.560;2024-01-27T03:51:45;101904.00;;;6.50
20092;BMP180;10205;49.678;6.560;2024-01-27T03:54:12;101932.00;;;6.50
20092;BMP180;10205;49.678;6.560;2024-01-27T03:56:40;101915.00;;;6.40
20092;BMP180;10205;49.678;6.560;2024-01-27T03:59:07;101912.00;;;6.40
20092;BMP180;10205;49.678;6.560;2024-01-27T04:01:37;101900.00;;;6.40
20092;BMP180;10205;49.678;6.560;2024-01-27T04:04:07;101910.00;;;6.40
20092;BMP180;10205;49.678;6.560;2024-01-27T04:06:37;101923.00;;;6.40
20092;BMP180;10205;49.678;6.560;2024-01-27T04:09:08;101922.00;;;6.40
20092;BMP180;10205;49.678;6.560;2024-01-27T04:11:38;101927.00;;;6.40
20092;BMP180;10205;49.678;6.560;2024-01-27T04:14:06;101920.00;;;6.30
20092;BMP180;10205;49.678;6.560;2024-01-27T04:16:34;101924.00;;;6.30
20092;BMP180;10205;49.678;6.560;2024-01-27T04:19:01;101927.00;;;6.30
20092;BMP180;10205;49.678;6.560;2024-01-27T04:21:28;101924.00;;;6.30
20092;BMP180;10205;49.678;6.560;2024-01-27T04:23:55;101938.00;;;6.30
20092;BMP180;10205;49.678;6.560;2024-01-27T04:26:23;101936.00;;;6.30
20092;BMP180;10205;49.678;6.560;2024-01-27T04:28:50;101936.00;;;6.30
20092;BMP180;10205;49.678;6.560;2024-01-27T04:31:17;101935.00;;;6.20
20092;BMP180;10205;49.678;6.560;2024-01-27T04:33:45;101937.00;;;6.30
20092;BMP180;10205;49.678;6.560;2024-01-27T04:36:12;101938.00;;;6.20
20092;BMP180;10205;49.678;6.560;2024-01-27T04:38:39;101916.00;;;6.20
20092;BMP180;10205;49.678;6.560;2024-01-27T04:41:06;101926.00;;;6.20
20092;BMP180;10205;49.678;6.560;2024-01-27T04:43:34;101923.00;;;6.20
20092;BMP180;10205;49.678;6.560;2024-01-27T04:46:01;101927.00;;;6.20
20092;BMP180;10205;49.678;6.560;2024-01-27T04:48:28;101921.00;;;6.20
20092;BMP180;10205;49.678;6.560;2024-01-27T04:50:55;101923.00;;;6.20
20092;BMP180;10205;49.678;6.560;2024-01-27T04:53:22;101932.00;;;6.20
20092;BMP180;10205;49.678;6.560;2024-01-27T04:55:49;101930.00;;;6.20
20092;BMP180;10205;49.678;6.560;2024-01-27T04:58:16;101933.00;;;6.20
20092;BMP180;10205;49.678;6.560;2024-01-27T05:00:45;101943.00;;;6.10
20092;BMP180;10205;49.678;6.560;2024-01-27T05:03:12;101938.00;;;6.10
20092;BMP180;10205;49.678;6.560;2024-01-27T05:05:41;101930.00;;;6.10
20092;BMP180;10205;49.678;6.560;2024-01-27T05:08:09;101934.00;;;6.10
20092;BMP180;10205;49.678;6.560;2024-01-27T05:10:36;101938.00;;;6.10
20092;BMP180;10205;49.678;6.560;2024-01-27T05:13:03;101927.00;;;6.00
20092;BMP180;10205;49.678;6.560;2024-01-27T05:15:31;101937.00;;;6.00
20092;BMP180;10205;49.678;6.560;2024-01-27T05:17:59;101942.00;;;6.00
20092;BMP180;10205;49.678;6.560;2024-01-27T05:20:26;101941.00;;;6.00
20092;BMP180;10205;49.678;6.560;2024-01-27T05:22:53;101955.00;;;6.00
20092;BMP180;10205;49.678;6.560;2024-01-27T05:25:20;101951.00;;;6.00
20092;BMP180;10205;49.678;6.560;2024-01-27T05:27:48;101948.00;;;6.00
20092;BMP180;10205;49.678;6.560;2024-01-27T05:30:16;101951.00;;;6.00
20092;BMP180;10205;49.678;6.560;2024-01-27T05:32:43;101966.00;;;6.00
20092;BMP180;10205;49.678;6.560;2024-01-27T05:35:12;101955.00;;;6.00
20092;BMP180;10205;49.678;6.560;2024-01-27T05:37:41;101938.00;;;6.00
20092;BMP180;10205;49.678;6.560;2024-01-27T05:40:09;101960.00;;;6.00
20092;BMP180;10205;49.678;6.560;2024-01-27T05:42:36;101958.00;;;6.00
20092;BMP180;10205;49.678;6.560;2024-01-27T05:45:07;101967.00;;;5.90
20092;BMP180;10205;49.678;6.560;2024-01-27T05:47:36;101962.00;;;5.90
20092;BMP180;10205;49.678;6.560;2024-01-27T05:50:04;101950.00;;;5.90
20092;BMP180;10205;49.678;6.560;2024-01-27T05:52:35;101957.00;;;5.90
20092;BMP180;10205;49.678;6.560;2024-01-27T05:55:02;101960.00;;;5.90
20092;BMP180;10205;49.678;6.560;2024-01-27T05:57:32;101961.00;;;5.90
20092;BMP180;10205;49.678;6.560;2024-01-27T05:59:59;101952.00;;;5.90
20092;BMP180;10205;49.678;6.560;2024-01-27T06:02:26;101955.00;;;5.90
20092;BMP180;10205;49.678;6.560;2024-01-27T06:04:53;101963.00;;;5.90
20092;BMP180;10205;49.678;6.560;2024-01-27T06:07:20;101962.00;;;5.90
20092;BMP180;10205;49.678;6.560;2024-01-27T06:09:49;101960.00;;;5.90
20092;BMP180;10205;49.678;6.560;2024-01-27T06:12:16;101954.00;;;5.90
20092;BMP180;10205;49.678;6.560;2024-01-27T06:14:43;101935.00;;;5.90
20092;BMP180;10205;49.678;6.560;2024-01-27T06:17:10;101951.00;;;5.90
20092;BMP180;10205;49.678;6.560;2024-01-27T06:19:38;101952.00;;;5.90
20092;BMP180;10205;49.678;6.560;2024-01-27T06:22:05;101945.00;;;5.90
20092;BMP180;10205;49.678;6.560;2024-01-27T06:24:32;101955.00;;;5.80
20092;BMP180;10205;49.678;6.560;2024-01-27T06:27:00;101949.00;;;5.90
20092;BMP180;10205;49.678;6.560;2024-01-27T06:29:27;101955.00;;;5.80
20092;BMP180;10205;49.678;6.560;2024-01-27T06:31:54;101960.00;;;5.80
20092;BMP180;10205;49.678;6.560;2024-01-27T06:34:22;101968.00;;;5.80
20092;BMP180;10205;49.678;6.560;2024-01-27T06:36:49;101964.00;;;5.80
20092;BMP180;10205;49.678;6.560;2024-01-27T06:39:16;101967.00;;;5.80
20092;BMP180;10205;49.678;6.560;2024-01-27T06:41:43;101981.00;;;5.80
20092;BMP180;10205;49.678;6.560;2024-01-27T06:44:11;101975.00;;;5.80
20092;BMP180;10205;49.678;6.560;2024-01-27T06:46:38;101979.00;;;5.80
20092;BMP180;10205;49.678;6.560;2024-01-27T06:49:05;101974.00;;;5.80
20092;BMP180;10205;49.678;6.560;2024-01-27T06:51:33;101973.00;;;5.80
20092;BMP180;10205;49.678;6.560;2024-01-27T06:54:00;101972.00;;;5.80
20092;BMP180;10205;49.678;6.560;2024-01-27T06:56:27;101971.00;;;5.70
20092;BMP180;10205;49.678;6.560;2024-01-27T06:58:54;101979.00;;;5.70
20092;BMP180;10205;49.678;6.560;2024-01-27T07:01:23;101967.00;;;5.70
20092;BMP180;10205;49.678;6.560;2024-01-27T07:03:50;101978.00;;;5.70
20092;BMP180;10205;49.678;6.560;2024-01-27T07:06:17;101987.00;;;5.70
20092;BMP180;10205;49.678;6.560;2024-01-27T07:08:44;101984.00;;;5.70
20092;BMP180;10205;49.678;6.560;2024-01-27T07:11:11;101992.00;;;5.70
20092;BMP180;10205;49.678;6.560;2024-01-27T07:13:41;101973.00;;;5.70
20092;BMP180;10205;49.678;6.560;2024-01-27T07:16:08;101999.00;;;5.70
20092;BMP180;10205;49.678;6.560;2024-01-27T07:18:36;101983.00;;;5.60
20092;BMP180;10205;49.678;6.560;2024-01-27T07:21:07;101985.00;;;5.70
20092;BMP180;10205;49.678;6.560;2024-01-27T07:23:34;101972.00;;;5.60
20092;BMP180;10205;49.678;6.560;2024-01-27T07:26:01;101990.00;;;5.60
20092;BMP180;10205;49.678;6.560;2024-01-27T07:28:29;101981.00;;;5.60
20092;BMP180;10205;49.678;6.560;2024-01-27T07:30:56;101979.00;;;5.60
20092;BMP180;10205;49.678;6.560;2024-01-27T07:33:23;101988.00;;;5.60
20092;BMP180;10205;49.678;6.560;2024-01-27T07:35:52;101993.00;;;5.60
20092;BMP180;10205;49.678;6.560;2024-01-27T07:38:19;102005.00;;;5.60
20092;BMP180;10205;49.678;6.560;2024-01-27T07:40:46;102001.00;;;5.60
20092;BMP180;10205;49.678;6.560;2024-01-27T07:43:14;102017.00;;;5.60
20092;BMP180;10205;49.678;6.560;2024-01-27T07:45:41;102002.00;;;5.60
20092;BMP180;10205;49.678;6.560;2024-01-27T07:48:08;102008.00;;;5.60
20092;BMP180;10205;49.678;6.560;2024-01-27T07:50:35;102004.00;;;5.60
20092;BMP180;10205;49.678;6.560;2024-01-27T07:53:04;102013.00;;;5.60
20092;BMP180;10205;49.678;6.560;2024-01-27T07:55:31;102013.00;;;5.60
20092;BMP180;10205;49.678;6.560;2024-01-27T07:57:58;102024.00;;;5.50
20092;BMP180;10205;49.678;6.560;2024-01-27T08:00:26;102024.00;;;5.50
20092;BMP180;10205;49.678;6.560;2024-01-27T08:02:53;102033.00;;;5.50
20092;BMP180;10205;49.678;6.560;2024-01-27T08:05:20;102026.00;;;5.50
20092;BMP180;10205;49.678;6.560;2024-01-27T08:07:47;102035.00;;;5.50
20092;BMP180;10205;49.678;6.560;2024-01-27T08:10:17;102040.00;;;5.50
20092;BMP180;10205;49.678;6.560;2024-01-27T08:12:44;102035.00;;;5.50
20092;BMP180;10205;49.678;6.560;2024-01-27T08:15:12;102028.00;;;5.50
20092;BMP180;10205;49.678;6.560;2024-01-27T08:17:39;102022.00;;;5.50
20092;BMP180;10205;49.678;6.560;2024-01-27T08:20:08;102029.00;;;5.50
20092;BMP180;10205;49.678;6.560;2024-01-27T08:22:35;102018.00;;;5.50
20092;BMP180;10205;49.678;6.560;2024-01-27T08:25:03;102008.00;;;5.50
20092;BMP180;10205;49.678;6.560;2024-01-27T08:27:31;102004.00;;;5.50
20092;BMP180;10205;49.678;6.560;2024-01-27T08:29:58;102013.00;;;5.50
20092;BMP180;10205;49.678;6.560;2024-01-27T08:32:26;102010.00;;;5.50
20092;BMP180;10205;49.678;6.560;2024-01-27T08:34:53;102010.00;;;5.50
20092;BMP180;10205;49.678;6.560;2024-01-27T08:37:21;102012.00;;;5.50
20092;BMP180;10205;49.678;6.560;2024-01-27T08:39:48;101999.00;;;5.50
20092;BMP180;10205;49.678;6.560;2024-01-27T08:42:16;102028.00;;;5.40
20092;BMP180;10205;49.678;6.560;2024-01-27T08:44:46;102009.00;;;5.40
20092;BMP180;10205;49.678;6.560;2024-01-27T08:47:13;102011.00;;;5.40
20092;BMP180;10205;49.678;6.560;2024-01-27T08:49:40;101986.00;;;5.40
20092;BMP180;10205;49.678;6.560;2024-01-27T08:52:07;102008.00;;;5.40
20092;BMP180;10205;49.678;6.560;2024-01-27T08:54:34;102025.00;;;5.40
20092;BMP180;10205;49.678;6.560;2024-01-27T08:57:02;102008.00;;;5.40
20092;BMP180;10205;49.678;6.560;2024-01-27T08:59:29;102013.00;;;5.40
20092;BMP180;10205;49.678;6.560;2024-01-27T09:01:57;102011.00;;;5.30
20092;BMP180;10205;49.678;6.560;2024-01-27T09:04:24;102014.00;;;5.40
20092;BMP180;10205;49.678;6.560;2024-01-27T09:06:51;102017.00;;;5.40
20092;BMP180;10205;49.678;6.560;2024-01-27T09:09:18;102020.00;;;5.40
20092;BMP180;10205;49.678;6.560;2024-01-27T09:11:45;102020.00;;;5.40
20092;BMP180;10205;49.678;6.560;2024-01-27T09:14:14;102021.00;;;5.40
20092;BMP180;10205;49.678;6.560;2024-01-27T09:16:41;102011.00;;;5.40
20092;BMP180;10205;49.678;6.560;2024-01-27T09:19:10;102013.00;;;5.40
20092;BMP180;10205;49.678;6.560;2024-01-27T09:21:37;102004.00;;;5.40
20092;BMP180;10205;49.678;6.560;2024-01-27T09:24:04;102023.00;;;5.40
20092;BMP180;10205;49.678;6.560;2024-01-27T09:26:31;102011.00;;;5.40
20092;BMP180;10205;49.678;6.560;2024-01-27T09:28:58;102007.00;;;5.40
20092;BMP180;10205;49.678;6.560;2024-01-27T09:31:26;102004.00;;;5.40
20092;BMP180;10205;49.678;6.560;2024-01-27T09:33:54;101999.00;;;5.30
20092;BMP180;10205;49.678;6.560;2024-01-27T09:36:23;102016.00;;;5.40
20092;BMP180;10205;49.678;6.560;2024-01-27T09:38:50;102009.00;;;5.30
20092;BMP180;10205;49.678;6.560;2024-01-27T09:41:18;102014.00;;;5.40
20092;BMP180;10205;49.678;6.560;2024-01-27T09:43:46;102007.00;;;5.30
20092;BMP180;10205;49.678;6.560;2024-01-27T09:46:14;102007.00;;;5.30
20092;BMP180;10205;49.678;6.560;2024-01-27T09:48:42;102010.00;;;5.30
20092;BMP180;10205;49.678;6.560;2024-01-27T09:51:10;102012.00;;;5.30
20092;BMP180;10205;49.678;6.560;2024-01-27T09:53:40;102008.00;;;5.20
20092;BMP180;10205;49.678;6.560;2024-01-27T09:56:07;102010.00;;;5.20
20092;BMP180;10205;49.678;6.560;2024-01-27T09:58:36;102010.00;;;5.20
20092;BMP180;10205;49.678;6.560;2024-01-27T10:01:06;102002.00;;;5.20
20092;BMP180;10205;49.678;6.560;2024-01-27T10:03:36;102016.00;;;5.30
20092;BMP180;10205;49.678;6.560;2024-01-27T10:06:09;102007.00;;;5.30
20092;BMP180;10205;49.678;6.560;2024-01-27T10:08:38;102014.00;;;5.30
20092;BMP180;10205;49.678;6.560;2024-01-27T10:11:07;102003.00;;;5.30
20092;BMP180;10205;49.678;6.560;2024-01-27T10:13:35;102011.00;;;5.30
20092;BMP180;10205;49.678;6.560;2024-01-27T10:16:05;102006.00;;;5.30
20092;BMP180;10205;49.678;6.560;2024-01-27T10:18:33;102008.00;;;5.40
20092;BMP180;10205;49.678;6.560;2024-01-27T10:21:12;102010.00;;;5.40
20092;BMP180;10205;49.678;6.560;2024-01-27T10:23:40;102012.00;;;5.40
20092;BMP180;10205;49.678;6.560;2024-01-27T10:26:09;102009.00;;;5.40
20092;BMP180;10205;49.678;6.560;2024-01-27T10:28:36;102011.00;;;5.50
20092;BMP180;10205;49.678;6.560;2024-01-27T10:31:09;102011.00;;;5.50
20092;BMP180;10205;49.678;6.560;2024-01-27T10:33:36;102005.00;;;5.50
20092;BMP180;10205;49.678;6.560;2024-01-27T10:36:04;102002.00;;;5.50
20092;BMP180;10205;49.678;6.560;2024-01-27T10:38:35;101991.00;;;5.50
20092;BMP180;10205;49.678;6.560;2024-01-27T10:41:08;101994.00;;;5.50
20092;BMP180;10205;49.678;6.560;2024-01-27T10:43:37;101999.00;;;5.60
20092;BMP180;10205;49.678;6.560;2024-01-27T10:46:06;101994.00;;;5.60
20092;BMP180;10205;49.678;6.560;2024-01-27T10:48:35;101980.00;;;5.60
20092;BMP180;10205;49.678;6.560;2024-01-27T10:51:07;101997.00;;;5.60
20092;BMP180;10205;49.678;6.560;2024-01-27T10:53:36;101994.00;;;5.70
20092;BMP180;10205;49.678;6.560;2024-01-27T10:56:07;101997.00;;;5.70
20092;BMP180;10205;49.678;6.560;2024-01-27T10:58:37;101984.00;;;5.70
20092;BMP180;10205;49.678;6.560;2024-01-27T11:01:09;101985.00;;;5.70
20092;BMP180;10205;49.678;6.560;2024-01-27T11:03:39;101977.00;;;5.70
20092;BMP180;10205;49.678;6.560;2024-01-27T11:06:07;101981.00;;;5.70
20092;BMP180;10205;49.678;6.560;2024-01-27T11:08:34;101980.00;;;5.80
20092;BMP180;10205;49.678;6.560;2024-01-27T11:11:03;101977.00;;;5.80
20092;BMP180;10205;49.678;6.560;2024-01-27T11:13:33;101974.00;;;5.80
20092;BMP180;10205;49.678;6.560;2024-01-27T11:16:00;101959.00;;;5.80
20092;BMP180;10205;49.678;6.560;2024-01-27T11:18:29;101972.00;;;5.90
20092;BMP180;10205;49.678;6.560;2024-01-27T11:20:58;101957.00;;;5.90
20092;BMP180;10205;49.678;6.560;2024-01-27T11:23:32;101958.00;;;5.90
20092;BMP180;10205;49.678;6.560;2024-01-27T11:26:04;101949.00;;;5.90
20092;BMP180;10205;49.678;6.560;2024-01-27T11:28:33;101940.00;;;5.90
20092;BMP180;10205;49.678;6.560;2024-01-27T11:31:04;101941.00;;;5.90
20092;BMP180;10205;49.678;6.560;2024-01-27T11:33:31;101945.00;;;5.90
20092;BMP180;10205;49.678;6.560;2024-01-27T11:36:02;101924.00;;;5.90
20092;BMP180;10205;49.678;6.560;2024-01-27T11:38:31;101927.00;;;5.90
20092;BMP180;10205;49.678;6.560;2024-01-27T11:40:59;101920.00;;;6.00
20092;BMP180;10205;49.678;6.560;2024-01-27T11:43:27;101927.00;;;6.00
20092;BMP180;10205;49.678;6.560;2024-01-27T11:45:59;101929.00;;;6.10
20092;BMP180;10205;49.678;6.560;2024-01-27T11:48:27;101932.00;;;6.10
20092;BMP180;10205;49.678;6.560;2024-01-27T11:51:06;101921.00;;;6.10
20092;BMP180;10205;49.678;6.560;2024-01-27T11:53:33;101942.00;;;6.10
20092;BMP180;10205;49.678;6.560;2024-01-27T11:56:00;101919.00;;;6.10
20092;BMP180;10205;49.678;6.560;2024-01-27T11:58:28;101925.00;;;6.10
20092;BMP180;10205;49.678;6.560;2024-01-27T12:00:57;101926.00;;;6.10
20092;BMP180;10205;49.678;6.560;2024-01-27T12:03:25;101916.00;;;6.10
20092;BMP180;10205;49.678;6.560;2024-01-27T12:05:53;101921.00;;;6.10
20092;BMP180;10205;49.678;6.560;2024-01-27T12:08:20;101906.00;;;6.10
20092;BMP180;10205;49.678;6.560;2024-01-27T12:10:47;101927.00;;;6.10
20092;BMP180;10205;49.678;6.560;2024-01-27T12:13:15;101950.00;;;6.10
20092;BMP180;10205;49.678;6.560;2024-01-27T12:15:43;101938.00;;;6.10
20092;BMP180;10205;49.678;6.560;2024-01-27T12:18:12;101933.00;;;6.20
20092;BMP180;10205;49.678;6.560;2024-01-27T12:20:39;101943.00;;;6.20
20092;BMP180;10205;49.678;6.560;2024-01-27T12:23:07;101918.00;;;6.20
20092;BMP180;10205;49.678;6.560;2024-01-27T12:25:35;101929.00;;;6.20
20092;BMP180;10205;49.678;6.560;2024-01-27T12:28:03;101919.00;;;6.30
20092;BMP180;10205;49.678;6.560;2024-01-27T12:30:32;101924.00;;;6.30
20092;BMP180;10205;49.678;6.560;2024-01-27T12:32:59;101919.00;;;6.40
20092;BMP180;10205;49.678;6.560;2024-01-27T12:35:29;101911.00;;;6.40
20092;BMP180;10205;49.678;6.560;2024-01-27T12:37:59;101912.00;;;6.40
20092;BMP180;10205;49.678;6.560;2024-01-27T12:40:26;101909.00;;;6.40
20092;BMP180;10205;49.678;6.560;2024-01-27T12:42:53;101901.00;;;6.40
20092;BMP180;10205;49.678;6.560;2024-01-27T12:45:20;101882.00;;;6.40
20092;BMP180;10205;49.678;6.560;2024-01-27T12:47:48;101908.00;;;6.50
20092;BMP180;10205;49.678;6.560;2024-01-27T12:50:15;101890.00;;;6.50
20092;BMP180;10205;49.678;6.560;2024-01-27T12:52:43;101888.00;;;6.50
20092;BMP180;10205;49.678;6.560;2024-01-27T12:55:10;101892.00;;;6.60
20092;BMP180;10205;49.678;6.560;2024-01-27T12:57:37;101890.00;;;6.60
20092;BMP180;10205;49.678;6.560;2024-01-27T13:00:07;101875.00;;;6.60
20092;BMP180;10205;49.678;6.560;2024-01-27T13:02:35;101856.00;;;6.60
20092;BMP180;10205;49.678;6.560;2024-01-27T13:05:03;101855.00;;;6.70
20092;BMP180;10205;49.678;6.560;2024-01-27T13:07:30;101841.00;;;6.80
20092;BMP180;10205;49.678;6.560;2024-01-27T13:09:59;101863.00;;;6.80
20092;BMP180;10205;49.678;6.560;2024-01-27T13:12:26;101844.00;;;6.80
20092;BMP180;10205;49.678;6.560;2024-01-27T13:14:53;101841.00;;;6.80
20092;BMP180;10205;49.678;6.560;2024-01-27T13:17:21;101837.00;;;6.90
20092;BMP180;10205;49.678;6.560;2024-01-27T13:19:48;101844.00;;;6.90
20092;BMP180;10205;49.678;6.560;2024-01-27T13:22:16;101845.00;;;7.00
20092;BMP180;10205;49.678;6.560;2024-01-27T13:24:43;101825.00;;;7.00
20092;BMP180;10205;49.678;6.560;2024-01-27T13:27:13;101831.00;;;7.00
20092;BMP180;10205;49.678;6.560;2024-01-27T13:29:40;101830.00;;;7.00
20092;BMP180;10205;49.678;6.560;2024-01-27T13:32:07;101834.00;;;7.00
20092;BMP180;10205;49.678;6.560;2024-01-27T13:34:34;101846.00;;;7.10
20092;BMP180;10205;49.678;6.560;2024-01-27T13:37:01;101835.00;;;7.10
20092;BMP180;10205;49.678;6.560;2024-01-27T13:39:29;101840.00;;;7.10
20092;BMP180;10205;49.678;6.560;2024-01-27T13:41:56;101830.00;;;7.20
20092;BMP180;10205;49.678;6.560;2024-01-27T13:44:25;101827.00;;;7.20
20092;BMP180;10205;49.678;6.560;2024-01-27T13:46:52;101817.00;;;7.20
20092;BMP180;10205;49.678;6.560;2024-01-27T13:49:19;101821.00;;;7.20
20092;BMP180;10205;49.678;6.560;2024-01-27T13:51:46;101825.00;;;7.30
20092;BMP180;10205;49.678;6.560;2024-01-27T13:54:13;101820.00;;;7.30
20092;BMP180;10205;49.678;6.560;2024-01-27T13:56:41;101833.00;;;7.30
20092;BMP180;10205;49.678;6.560;2024-01-27T13:59:08;101817.00;;;7.30
20092;BMP180;10205;49.678;6.560;2024-01-27T14:01:37;101824.00;;;7.30
20092;BMP180;10205;49.678;6.560;2024-01-27T14:04:04;101812.00;;;7.30
20092;BMP180;10205;49.678;6.560;2024-01-27T14:06:33;101813.00;;;7.30
20092;BMP180;10205;49.678;6.560;2024-01-27T14:09:00;101823.00;;;7.30
20092;BMP180;10205;49.678;6.560;2024-01-27T14:11:28;101812.00;;;7.30